createdAt,value
2022-11-02T00:00:07.147Z,9.46
2022-11-02T00:01:08.115Z,9.43
2022-11-02T00:02:08.991Z,9.40
2022-11-02T00:03:09.959Z,9.39
2022-11-02T00:04:10.371Z,9.38
2022-11-02T00:05:11.254Z,9.36
2022-11-02T00:06:12.133Z,9.38
2022-11-02T00:07:13.005Z,9.36
2022-11-02T00:08:13.901Z,9.36
2022-11-02T00:09:14.780Z,9.36
2022-11-02T00:10:15.663Z,9.36
2022-11-02T00:11:16.544Z,9.35
2022-11-02T00:12:17.426Z,9.36
2022-11-02T00:13:18.319Z,9.35
2022-11-02T00:14:19.201Z,9.33
2022-11-02T00:15:20.090Z,9.32
2022-11-02T00:16:20.968Z,9.35
2022-11-02T00:17:21.849Z,9.33
2022-11-02T00:18:22.766Z,9.32
2022-11-02T00:19:23.626Z,9.31
2022-11-02T00:20:24.510Z,9.32
2022-11-02T00:21:25.394Z,9.31
2022-11-02T00:22:26.277Z,9.29
2022-11-02T00:23:27.172Z,9.29
2022-11-02T00:24:28.053Z,9.29
2022-11-02T00:25:28.937Z,9.29
2022-11-02T00:26:29.819Z,9.26
2022-11-02T00:27:30.706Z,9.28
2022-11-02T00:28:31.595Z,9.24
2022-11-02T00:29:33.987Z,9.26
2022-11-02T00:30:32.983Z,9.23
2022-11-02T00:31:33.869Z,9.21
2022-11-02T00:32:34.755Z,9.23
2022-11-02T00:33:35.662Z,9.21
2022-11-02T00:34:36.533Z,9.18
2022-11-02T00:35:37.411Z,9.17
2022-11-02T00:36:38.291Z,9.15
2022-11-02T00:37:39.180Z,9.13
2022-11-02T00:38:40.070Z,9.13
2022-11-02T00:39:40.955Z,9.11
2022-11-02T00:40:41.845Z,9.10
2022-11-02T00:41:42.721Z,9.11
2022-11-02T00:42:43.603Z,9.08
2022-11-02T00:43:44.496Z,9.05
2022-11-02T00:44:45.381Z,9.04
2022-11-02T00:45:46.264Z,9.02
2022-11-02T00:46:47.173Z,8.99
2022-11-02T00:47:48.036Z,8.96
2022-11-02T00:48:48.944Z,8.94
2022-11-02T00:49:49.801Z,8.91
2022-11-02T00:50:50.684Z,8.87
2022-11-02T00:51:51.558Z,8.86
2022-11-02T00:52:52.050Z,8.81
2022-11-02T00:53:52.944Z,8.80
2022-11-02T00:54:53.828Z,8.79
2022-11-02T00:55:54.702Z,8.77
2022-11-02T00:56:55.619Z,8.76
2022-11-02T00:57:56.483Z,8.77
2022-11-02T00:58:57.371Z,8.71
2022-11-02T00:59:58.266Z,8.70
2022-11-02T01:00:59.253Z,8.68
2022-11-02T01:02:00.284Z,8.66
2022-11-02T01:03:00.732Z,8.68
2022-11-02T01:04:01.642Z,8.65
2022-11-02T01:05:02.508Z,8.63
2022-11-02T01:06:03.402Z,8.62
2022-11-02T01:07:04.295Z,8.63
2022-11-02T01:08:05.371Z,8.61
2022-11-02T01:09:05.930Z,8.59
2022-11-02T01:10:06.812Z,8.59
2022-11-02T01:11:07.707Z,8.56
2022-11-02T01:12:08.589Z,8.58
2022-11-02T01:13:09.472Z,8.56
2022-11-02T01:14:10.365Z,8.55
2022-11-02T01:15:11.247Z,8.58
2022-11-02T01:16:12.131Z,8.58
2022-11-02T01:17:13.020Z,8.55
2022-11-02T01:18:13.898Z,8.55
2022-11-02T01:19:14.808Z,8.55
2022-11-02T01:20:15.673Z,8.53
2022-11-02T01:21:16.555Z,8.53
2022-11-02T01:22:17.440Z,8.53
2022-11-02T01:23:18.321Z,8.53
2022-11-02T01:24:19.219Z,8.50
2022-11-02T01:25:20.101Z,8.52
2022-11-02T01:26:20.985Z,8.50
2022-11-02T01:27:21.867Z,8.48
2022-11-02T01:28:22.752Z,8.52
2022-11-02T01:29:23.646Z,8.48
2022-11-02T01:30:24.539Z,8.48
2022-11-02T01:31:25.424Z,8.47
2022-11-02T01:32:26.305Z,8.48
2022-11-02T01:33:27.188Z,8.47
2022-11-02T01:34:28.103Z,8.47
2022-11-02T01:35:28.968Z,8.45
2022-11-02T01:36:29.855Z,8.44
2022-11-02T01:37:30.735Z,8.41
2022-11-02T01:38:31.625Z,8.43
2022-11-02T01:39:32.539Z,8.38
2022-11-02T01:40:33.421Z,8.38
2022-11-02T01:41:34.304Z,8.37
2022-11-02T01:42:35.194Z,8.37
2022-11-02T01:43:36.078Z,8.34
2022-11-02T01:44:36.971Z,8.33
2022-11-02T01:45:37.865Z,8.30
2022-11-02T01:46:38.748Z,8.28
2022-11-02T01:47:39.623Z,8.25
2022-11-02T01:48:40.509Z,8.22
2022-11-02T01:49:41.417Z,8.20
2022-11-02T01:50:42.281Z,8.18
2022-11-02T01:51:43.165Z,8.15
2022-11-02T01:52:44.048Z,8.10
2022-11-02T01:53:44.937Z,8.08
2022-11-02T01:54:45.826Z,8.02
2022-11-02T01:55:46.714Z,8.02
2022-11-02T01:56:47.592Z,8.02
2022-11-02T01:57:48.475Z,8.00
2022-11-02T01:58:49.360Z,7.98
2022-11-02T01:59:50.255Z,7.95
2022-11-02T02:00:51.142Z,7.97
2022-11-02T02:01:52.165Z,7.95
2022-11-02T02:02:52.651Z,7.93
2022-11-02T02:03:53.590Z,7.93
2022-11-02T02:04:54.498Z,7.92
2022-11-02T02:05:55.363Z,7.90
2022-11-02T02:06:56.245Z,7.90
2022-11-02T02:07:57.130Z,7.89
2022-11-02T02:08:58.013Z,7.89
2022-11-02T02:09:58.915Z,7.89
2022-11-02T02:10:59.804Z,7.89
2022-11-02T02:12:00.709Z,7.87
2022-11-02T02:13:01.621Z,7.89
2022-11-02T02:14:02.512Z,7.86
2022-11-02T02:15:03.445Z,7.86
2022-11-02T02:16:04.320Z,7.86
2022-11-02T02:17:05.219Z,7.85
2022-11-02T02:18:06.431Z,7.83
2022-11-02T02:19:06.856Z,7.82
2022-11-02T02:20:07.776Z,7.79
2022-11-02T02:21:08.645Z,7.80
2022-11-02T02:22:09.525Z,7.79
2022-11-02T02:23:10.407Z,7.77
2022-11-02T02:24:11.291Z,7.74
2022-11-02T02:25:12.198Z,7.72
2022-11-02T02:26:13.083Z,7.71
2022-11-02T02:27:13.969Z,7.69
2022-11-02T02:28:14.851Z,7.69
2022-11-02T02:29:15.753Z,7.68
2022-11-02T02:30:16.634Z,7.68
2022-11-02T02:31:17.520Z,7.68
2022-11-02T02:32:18.405Z,7.67
2022-11-02T02:33:19.285Z,7.69
2022-11-02T02:34:20.171Z,7.69
2022-11-02T02:35:21.082Z,7.71
2022-11-02T02:36:21.945Z,7.71
2022-11-02T02:37:22.830Z,7.71
2022-11-02T02:38:23.712Z,7.72
2022-11-02T02:39:24.595Z,7.71
2022-11-02T02:40:25.491Z,7.71
2022-11-02T02:41:26.372Z,7.72
2022-11-02T02:42:27.255Z,7.72
2022-11-02T02:43:28.137Z,7.72
2022-11-02T02:44:29.023Z,7.72
2022-11-02T02:45:29.914Z,7.74
2022-11-02T02:46:34.364Z,7.71
2022-11-02T02:47:31.567Z,7.74
2022-11-02T02:48:32.468Z,7.72
2022-11-02T02:49:33.370Z,7.71
2022-11-02T02:50:34.300Z,7.68
2022-11-02T02:51:35.176Z,7.67
2022-11-02T02:52:36.081Z,7.63
2022-11-02T02:53:36.981Z,7.58
2022-11-02T02:54:37.862Z,7.57
2022-11-02T02:55:38.761Z,7.53
2022-11-02T02:56:39.696Z,7.52
2022-11-02T02:57:40.547Z,7.49
2022-11-02T02:58:41.433Z,7.48
2022-11-02T02:59:42.314Z,7.46
2022-11-02T03:00:43.208Z,7.45
2022-11-02T03:01:44.211Z,7.43
2022-11-02T03:02:45.068Z,7.42
2022-11-02T03:03:45.909Z,7.40
2022-11-02T03:04:46.794Z,7.42
2022-11-02T03:05:47.708Z,7.40
2022-11-02T03:06:48.573Z,7.40
2022-11-02T03:07:49.451Z,7.39
2022-11-02T03:08:50.336Z,7.35
2022-11-02T03:09:51.218Z,7.35
2022-11-02T03:10:52.113Z,7.37
2022-11-02T03:11:52.996Z,7.39
2022-11-02T03:12:53.882Z,7.35
2022-11-02T03:13:54.764Z,7.37
2022-11-02T03:14:55.652Z,7.37
2022-11-02T03:15:56.542Z,7.40
2022-11-02T03:17:58.298Z,7.39
2022-11-02T03:18:59.183Z,7.32
2022-11-02T03:20:00.068Z,7.30
2022-11-02T03:21:00.979Z,7.25
2022-11-02T03:22:01.842Z,7.23
2022-11-02T03:23:02.726Z,7.17
2022-11-02T03:24:03.608Z,7.16
2022-11-02T03:25:04.495Z,7.15
2022-11-02T03:26:05.386Z,7.13
2022-11-02T03:27:06.259Z,7.13
2022-11-02T03:28:07.299Z,7.09
2022-11-02T03:29:07.659Z,7.12
2022-11-02T03:30:08.541Z,7.12
2022-11-02T03:31:09.435Z,7.15
2022-11-02T03:32:10.320Z,7.13
2022-11-02T03:33:11.202Z,7.15
2022-11-02T03:34:12.085Z,7.17
2022-11-02T03:35:12.958Z,7.17
2022-11-02T03:36:13.873Z,7.23
2022-11-02T03:37:14.752Z,7.23
2022-11-02T03:38:15.618Z,7.25
2022-11-02T03:39:16.502Z,7.25
2022-11-02T03:40:17.387Z,7.28
2022-11-02T03:41:18.279Z,7.28
2022-11-02T03:42:19.160Z,7.28
2022-11-02T03:43:20.046Z,7.28
2022-11-02T03:44:20.935Z,7.28
2022-11-02T03:45:21.811Z,7.27
2022-11-02T03:46:22.703Z,7.25
2022-11-02T03:47:23.588Z,7.27
2022-11-02T03:48:24.470Z,7.24
2022-11-02T03:49:25.354Z,7.25
2022-11-02T03:50:26.237Z,7.25
2022-11-02T03:51:27.150Z,7.25
2022-11-02T03:52:28.012Z,7.24
2022-11-02T03:53:28.898Z,7.24
2022-11-02T03:54:29.780Z,7.23
2022-11-02T03:55:30.674Z,7.20
2022-11-02T03:56:31.565Z,7.17
2022-11-02T03:57:32.452Z,7.17
2022-11-02T03:58:33.408Z,7.13
2022-11-02T03:59:34.323Z,7.13
2022-11-02T04:00:35.204Z,7.15
2022-11-02T04:01:36.192Z,7.15
2022-11-02T04:02:37.090Z,7.13
2022-11-02T04:03:37.951Z,7.15
2022-11-02T04:04:38.833Z,7.16
2022-11-02T04:05:39.719Z,7.17
2022-11-02T04:06:40.641Z,7.20
2022-11-02T04:07:41.513Z,7.21
2022-11-02T04:08:42.409Z,7.17
2022-11-02T04:09:43.295Z,7.20
2022-11-02T04:10:44.177Z,7.20
2022-11-02T04:11:45.080Z,7.20
2022-11-02T04:12:45.984Z,7.20
2022-11-02T04:13:46.846Z,7.23
2022-11-02T04:14:47.748Z,7.23
2022-11-02T04:15:48.632Z,7.23
2022-11-02T04:16:49.527Z,7.21
2022-11-02T04:17:50.410Z,7.21
2022-11-02T04:18:51.292Z,7.23
2022-11-02T04:19:52.178Z,7.24
2022-11-02T04:20:53.059Z,7.24
2022-11-02T04:21:53.973Z,7.25
2022-11-02T04:22:54.836Z,7.27
2022-11-02T04:23:55.722Z,7.28
2022-11-02T04:24:56.606Z,7.27
2022-11-02T04:25:57.491Z,7.31
2022-11-02T04:26:58.382Z,7.30
2022-11-02T04:27:59.266Z,7.31
2022-11-02T04:29:00.148Z,7.30
2022-11-02T04:30:01.024Z,7.28
2022-11-02T04:31:01.919Z,7.31
2022-11-02T04:32:02.803Z,7.32
2022-11-02T04:33:03.691Z,7.31
2022-11-02T04:34:04.571Z,7.32
2022-11-02T04:35:05.451Z,7.32
2022-11-02T04:36:06.383Z,7.32
2022-11-02T04:37:07.247Z,7.31
2022-11-02T04:38:08.323Z,7.30
2022-11-02T04:39:08.787Z,7.32
2022-11-02T04:40:09.695Z,7.31
2022-11-02T04:41:10.615Z,7.31
2022-11-02T04:42:11.497Z,7.31
2022-11-02T04:43:12.399Z,7.34
2022-11-02T04:44:13.302Z,7.31
2022-11-02T04:45:14.203Z,7.27
2022-11-02T04:46:15.119Z,7.27
2022-11-02T04:47:16.010Z,7.24
2022-11-02T04:48:16.912Z,7.21
2022-11-02T04:49:17.795Z,7.23
2022-11-02T04:50:18.689Z,7.23
2022-11-02T04:51:19.578Z,7.21
2022-11-02T04:52:20.489Z,7.21
2022-11-02T04:53:21.348Z,7.21
2022-11-02T04:54:22.239Z,7.20
2022-11-02T04:55:23.122Z,7.21
2022-11-02T04:56:24.016Z,7.21
2022-11-02T04:57:24.901Z,7.21
2022-11-02T04:58:25.784Z,7.21
2022-11-02T04:59:26.667Z,7.21
2022-11-02T05:00:27.564Z,7.21
2022-11-02T05:01:28.728Z,7.20
2022-11-02T05:02:29.247Z,7.21
2022-11-02T05:03:29.604Z,7.21
2022-11-02T05:04:30.485Z,7.21
2022-11-02T05:05:31.381Z,7.24
2022-11-02T05:06:32.268Z,7.24
2022-11-02T05:07:33.170Z,7.25
2022-11-02T05:08:34.021Z,7.24
2022-11-02T05:09:34.904Z,7.27
2022-11-02T05:10:35.799Z,7.25
2022-11-02T05:11:36.683Z,7.25
2022-11-02T05:12:37.569Z,7.27
2022-11-02T05:13:38.450Z,7.24
2022-11-02T05:14:39.335Z,7.24
2022-11-02T05:15:40.228Z,7.21
2022-11-02T05:16:41.101Z,7.17
2022-11-02T05:17:41.994Z,7.16
2022-11-02T05:18:42.869Z,7.15
2022-11-02T05:19:43.754Z,7.13
2022-11-02T05:20:44.645Z,7.12
2022-11-02T05:21:45.529Z,7.10
2022-11-02T05:22:46.437Z,7.07
2022-11-02T05:23:47.297Z,7.10
2022-11-02T05:24:48.180Z,7.07
2022-11-02T05:25:49.071Z,7.07
2022-11-02T05:26:53.811Z,7.09
2022-11-02T05:27:50.522Z,7.07
2022-11-02T05:28:51.406Z,7.07
2022-11-02T05:29:52.291Z,7.06
2022-11-02T05:30:53.186Z,7.06
2022-11-02T05:31:54.073Z,7.07
2022-11-02T05:32:54.953Z,7.06
2022-11-02T05:33:55.837Z,7.09
2022-11-02T05:34:56.720Z,7.07
2022-11-02T05:35:57.615Z,7.09
2022-11-02T05:36:58.498Z,7.07
2022-11-02T05:37:59.401Z,7.09
2022-11-02T05:39:00.261Z,7.09
2022-11-02T05:40:01.099Z,7.10
2022-11-02T05:41:01.942Z,7.10
2022-11-02T05:42:02.824Z,7.10
2022-11-02T05:43:04.109Z,7.10
2022-11-02T05:44:04.613Z,7.12
2022-11-02T05:45:05.446Z,7.12
2022-11-02T05:46:06.284Z,7.13
2022-11-02T05:47:07.140Z,7.13
2022-11-02T05:48:07.967Z,7.15
2022-11-02T05:49:08.791Z,7.13
2022-11-02T05:50:09.617Z,7.16
2022-11-02T05:51:10.452Z,7.16
2022-11-02T05:52:11.275Z,7.17
2022-11-02T05:53:12.127Z,7.17
2022-11-02T05:54:12.937Z,7.17
2022-11-02T05:55:13.768Z,7.20
2022-11-02T05:56:14.615Z,7.17
2022-11-02T05:57:15.456Z,7.21
2022-11-02T05:58:16.267Z,7.21
2022-11-02T05:59:17.097Z,7.20
2022-11-02T06:00:17.926Z,7.23
2022-11-02T06:01:18.835Z,7.24
2022-11-02T06:02:23.310Z,7.23
2022-11-02T06:03:21.369Z,7.24
2022-11-02T06:04:21.292Z,7.23
2022-11-02T06:05:22.201Z,7.23
2022-11-02T06:06:23.041Z,7.21
2022-11-02T06:07:23.868Z,7.24
2022-11-02T06:08:24.741Z,7.23
2022-11-02T06:09:25.550Z,7.21
2022-11-02T06:10:26.381Z,7.23
2022-11-02T06:11:27.227Z,7.20
2022-11-02T06:12:28.057Z,7.17
2022-11-02T06:13:28.887Z,7.17
2022-11-02T06:14:29.721Z,7.17
2022-11-02T06:15:30.547Z,7.16
2022-11-02T06:16:31.390Z,7.15
2022-11-02T06:17:32.218Z,7.15
2022-11-02T06:18:33.050Z,7.13
2022-11-02T06:19:33.877Z,7.12
2022-11-02T06:20:34.709Z,7.10
2022-11-02T06:21:35.547Z,7.09
2022-11-02T06:22:36.383Z,7.07
2022-11-02T06:23:37.228Z,7.07
2022-11-02T06:24:38.040Z,7.06
2022-11-02T06:25:38.868Z,7.06
2022-11-02T06:26:39.712Z,7.06
2022-11-02T06:27:45.756Z,7.06
2022-11-02T06:28:42.260Z,7.05
2022-11-02T06:29:42.083Z,7.05
2022-11-02T06:30:42.905Z,7.06
2022-11-02T06:31:43.749Z,7.06
2022-11-02T06:32:44.575Z,7.07
2022-11-02T06:33:45.408Z,7.06
2022-11-02T06:34:46.239Z,7.09
2022-11-02T06:35:47.065Z,7.09
2022-11-02T06:36:47.905Z,7.10
2022-11-02T06:37:48.734Z,7.10
2022-11-02T06:38:49.586Z,7.10
2022-11-02T06:39:50.394Z,7.12
2022-11-02T06:40:51.226Z,7.12
2022-11-02T06:41:52.064Z,7.12
2022-11-02T06:43:10.798Z,7.13
2022-11-02T06:43:54.602Z,7.13
2022-11-02T06:44:54.434Z,7.13
2022-11-02T06:45:55.283Z,7.13
2022-11-02T06:46:56.103Z,7.13
2022-11-02T06:47:56.934Z,7.12
2022-11-02T06:48:57.763Z,7.12
2022-11-02T06:49:58.591Z,7.09
2022-11-02T06:50:59.423Z,7.07
2022-11-02T06:52:00.261Z,7.07
2022-11-02T06:53:01.345Z,7.06
2022-11-02T06:54:08.158Z,7.07
2022-11-02T06:55:03.469Z,7.07
2022-11-02T06:56:03.294Z,7.07
2022-11-02T06:57:04.135Z,7.09
2022-11-02T06:58:04.964Z,7.06
2022-11-02T06:59:05.793Z,7.09
2022-11-02T07:00:06.809Z,7.05
2022-11-02T07:01:07.785Z,7.06
2022-11-02T07:02:08.344Z,7.05
2022-11-02T07:03:08.987Z,7.03
2022-11-02T07:04:09.378Z,7.05
2022-11-02T07:05:10.197Z,7.03
2022-11-02T07:06:14.151Z,7.02
2022-11-02T07:07:11.726Z,6.98
2022-11-02T07:08:12.556Z,6.97
2022-11-02T07:09:13.405Z,6.98
2022-11-02T07:10:14.219Z,6.99
2022-11-02T07:11:15.068Z,6.98
2022-11-02T07:12:19.214Z,6.98
2022-11-02T07:13:17.614Z,6.98
2022-11-02T07:14:17.444Z,6.99
2022-11-02T07:15:18.276Z,6.99
2022-11-02T07:16:19.105Z,7.02
2022-11-02T07:17:19.944Z,7.03
2022-11-02T07:18:20.775Z,7.03
2022-11-02T07:19:21.608Z,7.05
2022-11-02T07:20:22.438Z,7.05
2022-11-02T07:21:23.294Z,7.06
2022-11-02T07:22:24.120Z,7.09
2022-11-02T07:23:24.951Z,7.07
2022-11-02T07:24:25.799Z,7.09
2022-11-02T07:25:26.611Z,7.09
2022-11-02T07:26:27.440Z,7.07
2022-11-02T07:27:28.279Z,7.09
2022-11-02T07:28:29.109Z,7.09
2022-11-02T07:29:29.929Z,7.13
2022-11-02T07:30:30.767Z,7.13
2022-11-02T07:31:31.599Z,7.16
2022-11-02T07:32:32.445Z,7.17
2022-11-02T07:33:33.274Z,7.23
2022-11-02T07:34:34.107Z,7.23
2022-11-02T07:35:34.934Z,7.24
2022-11-02T07:36:35.765Z,7.24
2022-11-02T07:37:36.606Z,7.25
2022-11-02T07:38:37.438Z,7.27
2022-11-02T07:39:38.286Z,7.27
2022-11-02T07:40:39.097Z,7.28
2022-11-02T07:41:39.936Z,7.30
2022-11-02T07:42:40.766Z,7.31
2022-11-02T07:43:44.151Z,7.32
2022-11-02T07:44:42.555Z,7.34
2022-11-02T07:45:43.393Z,7.37
2022-11-02T07:46:44.234Z,7.40
2022-11-02T07:47:45.064Z,7.43
2022-11-02T07:48:45.895Z,7.46
2022-11-02T07:49:46.718Z,7.48
2022-11-02T07:50:47.545Z,7.49
2022-11-02T07:51:48.384Z,7.53
2022-11-02T07:52:49.215Z,7.55
2022-11-02T07:53:50.046Z,7.57
2022-11-02T07:54:50.892Z,7.60
2022-11-02T07:55:51.697Z,7.63
2022-11-02T07:56:52.534Z,7.61
2022-11-02T07:57:53.375Z,7.63
2022-11-02T07:58:54.196Z,7.63
2022-11-02T07:59:55.029Z,7.63
2022-11-02T08:00:59.601Z,7.63
2022-11-02T08:01:56.745Z,7.67
2022-11-02T08:02:57.730Z,7.67
2022-11-02T08:03:58.527Z,7.68
2022-11-02T08:04:59.367Z,7.71
2022-11-02T08:06:00.188Z,7.72
2022-11-02T08:07:01.029Z,7.75
2022-11-02T08:08:02.275Z,7.77
2022-11-02T08:09:02.749Z,7.80
2022-11-02T08:10:03.614Z,7.82
2022-11-02T08:11:04.408Z,7.85
2022-11-02T08:12:05.239Z,7.89
2022-11-02T08:13:06.069Z,7.90
2022-11-02T08:14:06.898Z,7.93
2022-11-02T08:15:08.024Z,7.98
2022-11-02T08:16:08.324Z,8.01
2022-11-02T08:17:09.157Z,8.04
2022-11-02T08:18:09.989Z,8.10
2022-11-02T08:19:10.920Z,8.16
2022-11-02T08:20:11.698Z,8.20
2022-11-02T08:21:12.528Z,8.28
2022-11-02T08:22:13.357Z,8.30
2022-11-02T08:23:14.201Z,8.36
2022-11-02T08:24:15.017Z,8.36
2022-11-02T08:26:16.668Z,8.41
2022-11-02T08:27:17.506Z,8.43
2022-11-02T08:28:18.326Z,8.45
2022-11-02T08:29:19.156Z,8.50
2022-11-02T08:30:19.986Z,8.52
2022-11-02T08:31:20.815Z,8.55
2022-11-02T08:32:21.655Z,8.58
2022-11-02T08:33:22.484Z,8.61
2022-11-02T08:34:23.319Z,8.62
2022-11-02T08:35:24.170Z,8.65
2022-11-02T08:36:24.977Z,8.70
2022-11-02T08:37:25.814Z,8.76
2022-11-02T08:38:26.646Z,8.77
2022-11-02T08:39:27.477Z,8.81
2022-11-02T08:40:28.333Z,8.87
2022-11-02T08:41:29.152Z,8.94
2022-11-02T08:42:29.985Z,8.98
2022-11-02T08:43:30.818Z,8.99
2022-11-02T08:44:31.648Z,9.05
2022-11-02T08:45:54.200Z,9.13
2022-11-02T08:46:34.190Z,9.18
2022-11-02T08:47:34.029Z,9.23
2022-11-02T08:48:34.859Z,9.28
2022-11-02T08:49:35.678Z,9.29
2022-11-02T08:50:36.510Z,9.35
2022-11-02T08:51:37.338Z,9.35
2022-11-02T08:52:40.587Z,9.38
2022-11-02T08:53:38.752Z,9.39
2022-11-02T08:54:39.583Z,9.42
2022-11-02T08:55:40.517Z,9.46
2022-11-02T08:56:41.262Z,9.48
2022-11-02T08:57:42.106Z,9.51
2022-11-02T08:58:42.932Z,9.54
2022-11-02T08:59:43.764Z,9.60
2022-11-02T09:00:44.583Z,9.61
2022-11-02T09:01:45.591Z,9.64
2022-11-02T09:02:46.035Z,9.66
2022-11-02T09:03:46.846Z,9.68
2022-11-02T09:04:47.677Z,9.68
2022-11-02T09:05:48.506Z,9.72
2022-11-02T09:06:49.336Z,9.75
2022-11-02T09:07:50.177Z,9.78
2022-11-02T09:08:53.794Z,9.78
2022-11-02T09:09:52.721Z,9.79
2022-11-02T09:10:52.564Z,9.81
2022-11-02T09:11:53.371Z,9.83
2022-11-02T09:12:54.210Z,9.84
2022-11-02T09:13:57.166Z,9.86
2022-11-02T09:14:55.592Z,9.86
2022-11-02T09:15:56.425Z,9.87
2022-11-02T09:16:57.252Z,9.90
2022-11-02T09:17:58.091Z,9.91
2022-11-02T09:18:58.924Z,9.94
2022-11-02T09:19:59.752Z,9.94
2022-11-02T09:21:00.584Z,9.99
2022-11-02T09:22:05.507Z,10.02
2022-11-02T09:23:02.074Z,10.05
2022-11-02T09:24:02.891Z,10.07
2022-11-02T09:25:03.726Z,10.07
2022-11-02T09:26:04.575Z,10.09
2022-11-02T09:27:05.385Z,10.11
2022-11-02T09:28:06.482Z,10.12
2022-11-02T09:29:06.974Z,10.15
2022-11-02T09:30:07.806Z,10.17
2022-11-02T09:31:10.790Z,10.18
2022-11-02T09:32:09.144Z,10.18
2022-11-02T09:33:10.035Z,10.22
2022-11-02T09:34:10.814Z,10.23
2022-11-02T09:35:11.632Z,10.25
2022-11-02T09:36:12.463Z,10.25
2022-11-02T09:37:13.297Z,10.26
2022-11-02T09:38:14.134Z,10.26
2022-11-02T09:39:14.962Z,10.27
2022-11-02T09:40:15.791Z,10.30
2022-11-02T09:41:16.632Z,10.29
2022-11-02T09:42:17.444Z,10.30
2022-11-02T09:43:18.282Z,10.29
2022-11-02T09:44:19.113Z,10.30
2022-11-02T09:45:19.946Z,10.30
2022-11-02T09:46:20.773Z,10.32
2022-11-02T09:48:10.621Z,10.33
2022-11-02T09:48:28.172Z,10.36
2022-11-02T09:49:24.045Z,10.36
2022-11-02T09:50:23.959Z,10.40
2022-11-02T09:51:24.799Z,10.41
2022-11-02T09:52:25.630Z,10.45
2022-11-02T09:53:26.456Z,10.51
2022-11-02T09:54:27.283Z,10.52
2022-11-02T09:55:28.114Z,10.55
2022-11-02T09:56:28.963Z,10.59
2022-11-02T09:57:29.777Z,10.63
2022-11-02T09:58:30.612Z,10.66
2022-11-02T09:59:31.433Z,10.70
2022-11-02T10:00:32.265Z,10.73
2022-11-02T10:01:33.154Z,10.78
2022-11-02T10:02:33.996Z,10.79
2022-11-02T10:03:34.782Z,10.82
2022-11-02T10:04:35.613Z,10.85
2022-11-02T10:05:36.448Z,10.86
2022-11-02T10:06:37.273Z,10.91
2022-11-02T10:07:38.098Z,10.92
2022-11-02T10:08:38.938Z,10.96
2022-11-02T10:09:39.765Z,10.97
2022-11-02T10:10:40.594Z,10.99
2022-11-02T10:11:41.442Z,11.00
2022-11-02T10:12:42.249Z,11.03
2022-11-02T10:13:43.082Z,11.03
2022-11-02T10:14:43.909Z,11.06
2022-11-02T10:15:44.739Z,11.10
2022-11-02T10:16:45.567Z,11.11
2022-11-02T10:17:46.398Z,11.14
2022-11-02T10:18:47.239Z,11.19
2022-11-02T10:19:48.068Z,11.18
2022-11-02T10:20:48.898Z,11.19
2022-11-02T10:21:49.730Z,11.24
2022-11-02T10:22:50.549Z,11.22
2022-11-02T10:23:51.386Z,11.25
2022-11-02T10:24:52.218Z,11.27
2022-11-02T10:25:53.045Z,11.28
2022-11-02T10:26:53.899Z,11.32
2022-11-02T10:27:54.733Z,11.33
2022-11-02T10:28:55.547Z,11.36
2022-11-02T10:29:56.374Z,11.36
2022-11-02T10:30:57.204Z,11.40
2022-11-02T10:31:58.032Z,11.44
2022-11-02T10:32:58.855Z,11.47
2022-11-02T10:33:59.692Z,11.49
2022-11-02T10:35:17.549Z,11.54
2022-11-02T10:36:17.568Z,11.54
2022-11-02T10:37:02.962Z,11.57
2022-11-02T10:38:03.169Z,11.55
2022-11-02T10:39:03.603Z,11.57
2022-11-02T10:40:04.434Z,11.57
2022-11-02T10:41:05.267Z,11.58
2022-11-02T10:42:06.113Z,11.58
2022-11-02T10:43:06.923Z,11.58
2022-11-02T10:44:07.760Z,11.58
2022-11-02T10:45:08.593Z,11.58
2022-11-02T10:46:09.422Z,11.62
2022-11-02T10:47:10.244Z,11.64
2022-11-02T10:48:11.073Z,11.65
2022-11-02T10:49:11.905Z,11.67
2022-11-02T10:50:12.760Z,11.65
2022-11-02T10:51:13.555Z,11.67
2022-11-02T10:52:14.389Z,11.70
2022-11-02T10:53:39.566Z,11.72
2022-11-02T10:54:20.574Z,11.72
2022-11-02T10:55:17.662Z,11.75
2022-11-02T10:56:17.491Z,11.75
2022-11-02T10:57:18.331Z,11.76
2022-11-02T10:58:19.139Z,11.78
2022-11-02T10:59:19.980Z,11.78
2022-11-02T11:00:20.809Z,11.79
2022-11-02T11:01:21.752Z,11.79
2022-11-02T11:02:22.599Z,11.83
2022-11-02T11:03:23.428Z,11.83
2022-11-02T11:04:24.266Z,11.82
2022-11-02T11:05:25.097Z,11.83
2022-11-02T11:06:25.926Z,11.85
2022-11-02T11:07:26.758Z,11.88
2022-11-02T11:08:27.587Z,11.88
2022-11-02T11:09:28.425Z,11.90
2022-11-02T11:10:29.253Z,11.88
2022-11-02T11:11:30.086Z,11.91
2022-11-02T11:12:30.931Z,11.94
2022-11-02T11:15:49.721Z,11.95
2022-11-02T11:16:34.889Z,11.95
2022-11-02T11:20:36.935Z,11.96
2022-11-02T11:21:37.759Z,11.98
2022-11-02T11:22:38.579Z,11.98
2022-11-02T11:23:39.399Z,12.01
2022-11-02T11:24:40.296Z,12.01
2022-11-02T11:25:41.070Z,11.99
2022-11-02T11:26:41.898Z,11.98
2022-11-02T11:27:42.754Z,11.99
2022-11-02T11:28:43.561Z,11.98
2022-11-02T11:29:44.405Z,11.99
2022-11-02T11:31:00.627Z,11.96
2022-11-02T11:31:46.952Z,11.98
2022-11-02T11:32:46.781Z,11.96
2022-11-02T11:33:47.611Z,11.96
2022-11-02T11:34:48.450Z,11.95
2022-11-02T11:35:49.283Z,11.96
2022-11-02T11:36:50.110Z,11.95
2022-11-02T11:37:50.931Z,11.95
2022-11-02T11:38:51.759Z,11.95
2022-11-02T11:39:54.886Z,11.96
2022-11-02T11:40:53.411Z,11.95
2022-11-02T11:41:54.233Z,11.94
2022-11-02T11:42:59.972Z,11.95
2022-11-02T11:43:56.784Z,11.91
2022-11-02T11:44:56.627Z,11.94
2022-11-02T11:46:03.726Z,11.90
2022-11-02T11:46:59.173Z,11.90
2022-11-02T11:47:59.003Z,11.94
2022-11-02T11:48:59.854Z,11.91
2022-11-02T11:50:08.976Z,11.90
2022-11-02T11:51:02.388Z,11.88
2022-11-02T11:52:02.289Z,11.88
2022-11-02T11:53:03.467Z,11.88
2022-11-02T11:54:03.910Z,11.88
2022-11-02T11:55:04.748Z,11.88
2022-11-02T11:56:05.591Z,11.90
2022-11-02T11:57:06.410Z,11.88
2022-11-02T11:58:07.667Z,11.88
2022-11-02T11:59:08.212Z,11.85
2022-11-02T12:00:09.053Z,11.85
2022-11-02T12:01:11.123Z,11.82
2022-11-02T12:02:10.669Z,11.82
2022-11-02T12:03:11.837Z,11.82
2022-11-02T12:04:12.263Z,11.83
2022-11-02T12:05:13.101Z,11.80
2022-11-02T12:06:13.933Z,11.80
2022-11-02T12:07:14.766Z,11.79
2022-11-02T12:08:15.592Z,11.78
2022-11-02T12:09:16.423Z,11.78
2022-11-02T12:10:17.262Z,11.76
2022-11-02T12:11:19.284Z,11.76
2022-11-02T12:12:18.670Z,11.76
2022-11-02T12:13:19.523Z,11.73
2022-11-02T12:14:20.330Z,11.72
2022-11-02T12:15:21.170Z,11.70
2022-11-02T12:16:22.002Z,11.69
2022-11-02T12:17:22.830Z,11.65
2022-11-02T12:18:23.650Z,11.69
2022-11-02T12:19:27.226Z,11.65
2022-11-02T12:20:26.208Z,11.65
2022-11-02T12:21:26.034Z,11.65
2022-11-02T12:22:26.863Z,11.65
2022-11-02T12:23:27.695Z,11.64
2022-11-02T12:24:28.524Z,11.65
2022-11-02T12:25:29.364Z,11.64
2022-11-02T12:26:30.196Z,11.62
2022-11-02T12:27:31.025Z,11.62
2022-11-02T12:28:31.874Z,11.64
2022-11-02T12:29:32.683Z,11.65
2022-11-02T12:30:33.530Z,11.64
2022-11-02T12:31:34.352Z,11.65
2022-11-02T12:32:35.184Z,11.65
2022-11-02T12:33:36.010Z,11.65
2022-11-02T12:34:36.843Z,11.64
2022-11-02T12:35:37.684Z,11.65
2022-11-02T12:36:49.686Z,11.64
2022-11-02T12:37:41.598Z,11.65
2022-11-02T12:38:40.082Z,11.64
2022-11-02T12:39:40.916Z,11.64
2022-11-02T12:40:41.756Z,11.65
2022-11-02T12:41:42.582Z,11.69
2022-11-02T12:42:43.537Z,11.65
2022-11-02T12:43:44.409Z,11.67
2022-11-02T12:44:45.283Z,11.64
2022-11-02T12:45:46.282Z,11.64
2022-11-02T12:46:49.195Z,11.67
2022-11-02T12:47:47.134Z,11.67
2022-11-02T12:48:47.964Z,11.67
2022-11-02T12:49:48.793Z,11.65
2022-11-02T12:50:49.634Z,11.65
2022-11-02T12:51:50.466Z,11.65
2022-11-02T12:52:51.295Z,11.67
2022-11-02T12:53:52.122Z,11.65
2022-11-02T12:54:52.958Z,11.65
2022-11-02T12:55:53.803Z,11.67
2022-11-02T12:56:54.634Z,11.64
2022-11-02T12:57:55.461Z,11.67
2022-11-02T12:58:56.315Z,11.65
2022-11-02T12:59:57.126Z,11.65
2022-11-02T13:00:57.987Z,11.64
2022-11-02T13:01:59.004Z,11.62
2022-11-02T13:02:59.432Z,11.62
2022-11-02T13:04:00.262Z,11.62
2022-11-02T13:05:01.084Z,11.64
2022-11-02T13:06:01.921Z,11.64
2022-11-02T13:07:02.752Z,11.64
2022-11-02T13:08:03.997Z,11.62
2022-11-02T13:09:04.563Z,11.61
2022-11-02T13:10:05.430Z,11.58
2022-11-02T13:11:06.254Z,11.60
2022-11-02T13:12:07.083Z,11.58
2022-11-02T13:13:08.136Z,11.58
2022-11-02T13:14:12.937Z,11.55
2022-11-02T13:15:12.198Z,11.57
2022-11-02T13:16:10.105Z,11.55
2022-11-02T13:17:10.935Z,11.54
2022-11-02T13:18:11.779Z,11.54
2022-11-02T13:19:12.596Z,11.55
2022-11-02T13:20:13.426Z,11.54
2022-11-02T13:21:14.273Z,11.55
2022-11-02T13:22:15.101Z,11.54
2022-11-02T13:23:15.921Z,11.54
2022-11-02T13:24:16.748Z,11.55
2022-11-02T13:25:17.583Z,11.57
2022-11-02T13:26:18.418Z,11.57
2022-11-02T13:27:35.256Z,11.57
2022-11-02T13:28:20.969Z,11.55